Time;durP1;ratioP1;P1;durP2;ratioP2;P2;SDS_P1;SDS_P2;PMS_P1;PMS_P2;Temp;Humidity;BMP_temperature;BMP_pressure;BME280_temperature;BME280_humidity;BME280_pressure;Samples;Min_cycle;Max_cycle;Signal;HPM_P1;HPM_P2
2023/04/09 00:02:16;;;;;;;7.28;1.77;;;10.60;99.90;;;;;;5133906;27;20023;-73
2023/04/09 00:04:41;;;;;;;4.30;1.50;;;10.60;99.90;;;;;;5133289;27;20031;-73
2023/04/09 00:07:07;;;;;;;8.02;2.08;;;10.60;99.90;;;;;;5133913;27;20050;-73
2023/04/09 00:09:33;;;;;;;4.90;1.73;;;10.50;99.90;;;;;;5133187;27;20108;-73
2023/04/09 00:11:59;;;;;;;3.22;1.67;;;10.50;99.90;;;;;;5133682;27;20053;-73
2023/04/09 00:14:24;;;;;;;3.50;1.60;;;10.50;99.90;;;;;;5132846;27;20087;-73
2023/04/09 00:16:50;;;;;;;5.22;1.52;;;10.50;99.90;;;;;;5114772;27;20031;-73
2023/04/09 00:19:16;;;;;;;4.32;2.00;;;10.50;99.90;;;;;;5133723;27;20063;-73
2023/04/09 00:21:42;;;;;;;4.05;1.40;;;10.50;99.90;;;;;;5132950;27;20452;-73
2023/04/09 00:24:07;;;;;;;4.22;2.00;;;10.50;99.90;;;;;;5133227;27;20488;-73
2023/04/09 00:26:33;;;;;;;4.82;1.55;;;10.50;99.90;;;;;;5133084;27;20529;-74
2023/04/09 00:28:59;;;;;;;3.67;1.50;;;10.50;99.90;;;;;;5133235;27;20051;-73
2023/04/09 00:31:25;;;;;;;5.18;1.80;;;10.50;99.90;;;;;;5132768;27;20027;-74
2023/04/09 00:33:51;;;;;;;3.38;1.55;;;10.50;99.90;;;;;;5133209;27;20045;-73
2023/04/09 00:36:17;;;;;;;6.40;1.63;;;10.50;99.90;;;;;;5133161;27;20102;-73
2023/04/09 00:38:42;;;;;;;3.67;1.80;;;10.50;99.90;;;;;;5131380;27;20035;-73
2023/04/09 00:41:08;;;;;;;4.88;1.60;;;10.50;99.90;;;;;;5133073;27;20163;-73
2023/04/09 00:43:34;;;;;;;4.65;2.10;;;10.50;99.90;;;;;;5132500;27;20026;-74
2023/04/09 00:46:00;;;;;;;6.25;2.00;;;10.50;99.90;;;;;;5133073;27;20027;-73
2023/04/09 00:48:27;;;;;;;5.13;2.00;;;10.50;99.90;;;;;;5132245;27;20039;-74
2023/04/09 00:50:52;;;;;;;5.90;1.90;;;10.50;99.90;;;;;;5133402;27;20034;-74
2023/04/09 00:53:19;;;;;;;6.07;2.08;;;10.60;99.90;;;;;;5133040;27;20023;-74
2023/04/09 00:55:45;;;;;;;5.47;2.08;;;10.50;99.90;;;;;;5132462;27;20019;-74
2023/04/09 00:58:11;;;;;;;5.95;2.10;;;10.50;99.90;;;;;;5132931;27;20125;-74
2023/04/09 01:00:37;;;;;;;5.88;2.60;;;10.50;99.90;;;;;;5132299;27;20082;-74
2023/04/09 01:03:05;;;;;;;6.38;2.17;;;10.50;99.90;;;;;;5132856;27;20026;-74
2023/04/09 01:05:45;;;;;;;5.30;2.30;;;10.40;99.90;;;;;;5131908;27;20027;-74
2023/04/09 01:08:27;;;;;;;4.82;2.33;;;10.50;99.90;;;;;;5132757;27;20027;-74
2023/04/09 01:11:20;;;;;;;6.78;2.30;;;10.40;99.90;;;;;;5132900;27;20096;-74
2023/04/09 01:14:05;;;;;;;7.57;2.58;;;10.40;99.90;;;;;;5132071;27;20041;-74
2023/04/09 01:16:35;;;;;;;8.27;2.90;;;10.40;99.90;;;;;;5131856;27;20032;-74
2023/04/09 01:19:34;;;;;;;8.85;3.05;;;10.40;99.90;;;;;;5132798;27;20027;-74
2023/04/09 01:22:00;;;;;;;5.32;2.53;;;10.30;99.90;;;;;;5122887;27;20321;-74
2023/04/09 01:25:07;;;;;;;7.18;2.60;;;10.30;99.90;;;;;;5131809;27;20031;-75
2023/04/09 01:27:43;;;;;;;10.52;3.50;;;10.20;99.90;;;;;;5131581;27;20339;-74
2023/04/09 01:30:11;;;;;;;9.77;3.05;;;10.20;99.90;;;;;;5132338;27;20023;-74
2023/04/09 01:32:38;;;;;;;6.15;2.53;;;10.20;99.90;;;;;;5131488;27;20118;-74
2023/04/09 01:35:07;;;;;;;4.25;2.25;;;10.20;99.90;;;;;;5132234;27;20049;-73
2023/04/09 01:37:34;;;;;;;7.05;2.38;;;10.20;99.90;;;;;;5131766;27;20058;-75
2023/04/09 01:40:01;;;;;;;7.80;2.33;;;10.20;99.90;;;;;;5132122;27;20027;-75
2023/04/09 01:42:28;;;;;;;8.80;2.33;;;10.30;99.90;;;;;;5131392;27;20023;-78
2023/04/09 01:44:54;;;;;;;7.20;2.40;;;10.30;99.90;;;;;;5132034;27;20027;-74
2023/04/09 01:47:21;;;;;;;5.55;2.33;;;10.30;99.90;;;;;;5132596;27;20034;-74
2023/04/09 01:49:46;;;;;;;5.57;2.35;;;10.30;99.90;;;;;;5131799;27;20254;-74
2023/04/09 01:52:13;;;;;;;9.02;2.83;;;10.30;99.90;;;;;;5131783;27;20502;-74
2023/04/09 01:54:39;;;;;;;5.88;2.53;;;10.30;99.90;;;;;;5131162;27;20032;-74
2023/04/09 01:57:04;;;;;;;6.82;2.63;;;10.30;99.90;;;;;;5132080;27;20034;-73
2023/04/09 01:59:30;;;;;;;7.80;2.35;;;10.30;99.90;;;;;;5131579;27;20393;-74
2023/04/09 02:02:01;;;;;;;9.85;2.70;;;10.20;99.90;;;;;;5132092;27;20053;-74
2023/04/09 02:04:33;;;;;;;8.48;2.90;;;10.30;99.90;;;;;;5131847;27;20051;-78
2023/04/09 02:07:01;;;;;;;9.32;2.72;;;10.30;99.90;;;;;;5132239;27;20444;-73
2023/04/09 02:09:30;;;;;;;6.25;2.30;;;10.30;99.90;;;;;;5131678;27;20026;-77
2023/04/09 02:11:59;;;;;;;8.18;2.75;;;10.30;99.90;;;;;;5132185;27;20039;-73
2023/04/09 02:14:27;;;;;;;5.00;2.35;;;10.30;99.90;;;;;;5131927;27;20023;-74
2023/04/09 02:16:53;;;;;;;9.38;2.88;;;10.30;99.90;;;;;;5113308;27;20087;-74
2023/04/09 02:19:18;;;;;;;6.18;2.22;;;10.30;99.90;;;;;;5131698;27;20031;-74
2023/04/09 02:21:45;;;;;;;4.72;2.25;;;10.30;99.90;;;;;;5131155;28;20106;-74
2023/04/09 02:24:11;;;;;;;7.93;2.63;;;10.30;99.90;;;;;;5131738;28;20071;-74
2023/04/09 02:26:36;;;;;;;6.90;2.47;;;10.30;99.90;;;;;;5130724;28;20055;-74
2023/04/09 02:29:02;;;;;;;7.25;3.00;;;10.30;99.90;;;;;;5131822;28;20027;-74
2023/04/09 02:31:28;;;;;;;8.15;2.88;;;10.30;99.90;;;;;;5131418;28;20086;-79
2023/04/09 02:33:54;;;;;;;7.82;2.45;;;10.30;99.90;;;;;;5130966;28;20055;-74
2023/04/09 02:36:20;;;;;;;8.07;2.90;;;10.30;99.90;;;;;;5131656;28;20019;-74
2023/04/09 02:38:45;;;;;;;6.43;2.85;;;10.20;99.90;;;;;;5130931;28;20027;-75
2023/04/09 02:41:11;;;;;;;8.05;2.42;;;10.30;99.90;;;;;;5113028;28;20087;-74
2023/04/09 02:43:37;;;;;;;7.90;2.72;;;10.30;99.90;;;;;;5131014;28;20405;-75
2023/04/09 02:46:03;;;;;;;5.93;2.60;;;10.30;99.90;;;;;;5130846;28;20113;-74
2023/04/09 02:48:29;;;;;;;6.10;2.72;;;10.30;99.90;;;;;;5131314;28;20027;-78
2023/04/09 02:50:54;;;;;;;6.60;2.40;;;10.30;99.90;;;;;;5112644;28;20011;-74
2023/04/09 02:53:20;;;;;;;7.65;2.33;;;10.20;99.90;;;;;;5131094;28;20344;-74
2023/04/09 02:55:46;;;;;;;7.72;2.55;;;10.30;99.90;;;;;;5130733;28;20031;-75
2023/04/09 02:58:12;;;;;;;6.45;2.53;;;10.30;99.90;;;;;;5131172;28;20115;-74
2023/04/09 03:00:38;;;;;;;9.20;2.40;;;10.30;99.90;;;;;;5130635;28;20106;-73
2023/04/09 03:03:03;;;;;;;6.63;2.22;;;10.30;99.90;;;;;;5132815;27;20434;-73
2023/04/09 03:05:29;;;;;;;4.85;2.30;;;10.20;99.90;;;;;;5135044;27;20035;-73
2023/04/09 03:07:55;;;;;;;8.93;2.40;;;10.20;99.90;;;;;;5134502;27;20456;-74
2023/04/09 03:10:21;;;;;;;9.35;2.88;;;10.20;99.90;;;;;;5134914;27;20027;-74
2023/04/09 03:12:47;;;;;;;6.10;2.30;;;10.20;99.90;;;;;;5134390;27;20110;-73
2023/04/09 03:15:12;;;;;;;5.65;2.50;;;10.20;99.90;;;;;;5134657;27;20408;-73
2023/04/09 03:17:38;;;;;;;6.85;2.60;;;10.20;99.90;;;;;;5134349;27;20052;-74
2023/04/09 03:20:06;;;;;;;11.93;2.65;;;10.20;99.90;;;;;;5134812;27;20031;-74
2023/04/09 03:22:38;;;;;;;10.30;2.25;;;10.20;99.90;;;;;;5134358;27;20339;-79
2023/04/09 03:25:04;;;;;;;8.82;2.70;;;10.20;99.90;;;;;;5134832;27;20058;-74
2023/04/09 03:27:31;;;;;;;6.30;2.25;;;10.20;99.90;;;;;;5135206;27;20051;-78
2023/04/09 03:29:57;;;;;;;8.05;2.42;;;10.30;99.90;;;;;;5134773;27;20467;-74
2023/04/09 03:32:23;;;;;;;7.65;2.35;;;10.20;99.90;;;;;;5134865;27;20531;-74
2023/04/09 03:34:49;;;;;;;7.93;2.22;;;10.30;99.90;;;;;;5134682;27;20102;-74
2023/04/09 03:37:15;;;;;;;8.90;2.60;;;10.20;99.90;;;;;;5134672;27;20378;-73
2023/04/09 03:39:40;;;;;;;8.55;2.20;;;10.20;99.90;;;;;;5134059;27;20031;-73
2023/04/09 03:42:06;;;;;;;9.13;3.17;;;10.10;99.90;;;;;;5134481;27;20027;-73
2023/04/09 03:44:32;;;;;;;8.40;3.25;;;10.20;99.90;;;;;;5134127;27;20494;-78
2023/04/09 03:46:58;;;;;;;7.93;2.55;;;10.20;99.90;;;;;;5133763;27;20027;-73
2023/04/09 03:49:23;;;;;;;5.30;2.33;;;10.20;99.90;;;;;;5134065;27;20030;-73
2023/04/09 03:51:49;;;;;;;5.93;2.85;;;10.20;99.90;;;;;;5133400;27;20051;-73
2023/04/09 03:54:15;;;;;;;7.80;3.00;;;10.20;99.90;;;;;;5133999;27;20027;-73
2023/04/09 03:56:41;;;;;;;6.05;2.72;;;10.20;99.90;;;;;;5132988;27;20364;-74
2023/04/09 03:59:07;;;;;;;8.88;3.25;;;10.20;99.90;;;;;;5133845;27;20023;-74
2023/04/09 04:01:33;;;;;;;9.27;3.03;;;10.10;99.90;;;;;;5133819;27;20024;-74
2023/04/09 04:03:59;;;;;;;11.07;3.08;;;10.10;99.90;;;;;;5133393;27;20026;-74
2023/04/09 04:06:26;;;;;;;10.93;3.13;;;10.10;99.90;;;;;;5115518;27;20019;-75
2023/04/09 04:08:52;;;;;;;7.15;3.05;;;10.10;99.90;;;;;;5133137;27;20115;-74
2023/04/09 04:11:17;;;;;;;10.93;3.30;;;10.10;99.90;;;;;;5133394;27;20031;-74
2023/04/09 04:13:43;;;;;;;8.63;3.03;;;10.10;99.90;;;;;;5132897;27;20433;-75
2023/04/09 04:16:09;;;;;;;12.80;3.20;;;10.10;99.90;;;;;;5133276;27;20055;-74
2023/04/09 04:18:35;;;;;;;8.43;4.05;;;10.00;99.90;;;;;;5133102;27;20106;-78
2023/04/09 04:21:01;;;;;;;10.52;3.78;;;10.00;99.90;;;;;;5132906;27;20027;-74
2023/04/09 04:23:27;;;;;;;15.07;3.97;;;10.00;99.90;;;;;;5133473;27;20051;-74
2023/04/09 04:25:53;;;;;;;12.73;4.00;;;10.00;99.90;;;;;;5113896;27;20130;-74
2023/04/09 04:28:19;;;;;;;11.90;3.60;;;10.00;99.90;;;;;;5133369;27;20038;-74
2023/04/09 04:30:44;;;;;;;14.52;4.18;;;10.00;99.90;;;;;;5132771;27;20023;-75
2023/04/09 04:33:10;;;;;;;13.18;3.55;;;10.00;99.90;;;;;;5133201;27;20107;-74
2023/04/09 04:35:36;;;;;;;9.38;3.38;;;10.10;99.90;;;;;;5114155;27;20083;-77
2023/04/09 04:38:02;;;;;;;15.20;3.97;;;10.00;99.90;;;;;;5132480;27;20067;-74
2023/04/09 04:40:28;;;;;;;12.13;4.28;;;10.00;99.90;;;;;;5133082;27;20458;-73
2023/04/09 04:42:53;;;;;;;10.35;4.78;;;10.00;99.90;;;;;;5132559;27;20053;-73
2023/04/09 04:45:19;;;;;;;11.80;3.72;;;9.90;99.90;;;;;;5132752;27;20088;-74
2023/04/09 04:47:45;;;;;;;11.50;4.05;;;9.90;99.90;;;;;;5132282;27;20027;-73
2023/04/09 04:50:11;;;;;;;11.80;4.47;;;9.90;99.90;;;;;;5132992;27;20027;-73
2023/04/09 04:52:39;;;;;;;11.65;3.65;;;9.90;99.90;;;;;;5132583;27;20107;-75
2023/04/09 04:55:05;;;;;;;13.70;4.75;;;9.90;99.90;;;;;;5132164;27;20417;-73
2023/04/09 04:57:31;;;;;;;13.50;4.25;;;9.80;99.90;;;;;;5132445;27;20042;-74
2023/04/09 04:59:56;;;;;;;9.52;4.50;;;9.80;99.90;;;;;;5131890;27;20019;-74
2023/04/09 05:02:22;;;;;;;13.35;4.95;;;9.80;99.90;;;;;;5132655;27;20024;-74
2023/04/09 05:04:48;;;;;;;12.18;4.45;;;9.80;99.90;;;;;;5131974;27;20030;-74
2023/04/09 05:07:13;;;;;;;11.27;4.22;;;9.80;99.90;;;;;;5113855;27;20027;-73
2023/04/09 05:09:41;;;;;;;15.75;4.68;;;9.70;99.90;;;;;;5132119;27;20023;-77
2023/04/09 05:12:07;;;;;;;14.38;4.63;;;9.70;99.90;;;;;;5113967;27;20030;-74
2023/04/09 05:14:34;;;;;;;17.55;5.30;;;9.70;99.90;;;;;;5132300;27;20023;-73
2023/04/09 05:16:59;;;;;;;20.48;5.28;;;9.70;99.90;;;;;;5131508;27;20059;-73
2023/04/09 05:19:25;;;;;;;12.93;4.65;;;9.70;99.90;;;;;;5131896;27;20439;-73
2023/04/09 05:21:51;;;;;;;8.68;3.95;;;9.70;99.90;;;;;;5131675;27;20027;-74
2023/04/09 05:24:16;;;;;;;9.63;3.47;;;9.70;99.90;;;;;;5132269;27;20062;-73
2023/04/09 05:26:42;;;;;;;12.00;4.22;;;9.70;99.90;;;;;;5112254;27;20042;-75
2023/04/09 05:29:08;;;;;;;11.45;4.25;;;9.80;99.90;;;;;;5132239;27;20019;-74
2023/04/09 05:31:34;;;;;;;10.75;3.85;;;9.80;99.90;;;;;;5132558;27;20107;-75
2023/04/09 05:34:00;;;;;;;11.10;4.20;;;9.90;99.90;;;;;;5131576;27;20232;-73
2023/04/09 05:36:26;;;;;;;15.45;4.07;;;9.90;99.90;;;;;;5132085;27;20497;-75
2023/04/09 05:38:51;;;;;;;8.38;3.60;;;9.90;99.90;;;;;;5131801;27;20031;-74
2023/04/09 05:41:17;;;;;;;12.82;4.43;;;9.90;99.90;;;;;;5132322;27;20095;-74
2023/04/09 05:43:43;;;;;;;11.02;3.75;;;9.80;99.90;;;;;;5131676;27;20027;-78
2023/04/09 05:46:08;;;;;;;8.35;4.05;;;9.80;99.90;;;;;;5131836;27;20023;-73
2023/04/09 05:48:35;;;;;;;10.15;4.00;;;9.80;99.90;;;;;;5131483;27;20097;-73
2023/04/09 05:51:01;;;;;;;13.93;4.35;;;9.90;99.90;;;;;;5131375;27;20065;-73
2023/04/09 05:53:28;;;;;;;11.80;4.47;;;9.90;99.90;;;;;;5131716;27;20024;-73
2023/04/09 05:55:53;;;;;;;19.05;5.15;;;9.90;99.90;;;;;;5131164;27;20020;-74
2023/04/09 05:58:19;;;;;;;10.98;4.32;;;9.90;99.90;;;;;;5131646;27;20035;-74
2023/04/09 06:00:45;;;;;;;9.40;4.25;;;10.00;99.90;;;;;;5130929;27;20042;-74
2023/04/09 06:03:10;;;;;;;10.63;4.95;;;10.00;99.90;;;;;;5131470;27;20122;-73
2023/04/09 06:05:36;;;;;;;11.90;4.80;;;10.00;99.90;;;;;;5131558;27;20445;-73
2023/04/09 06:08:02;;;;;;;15.90;5.00;;;10.00;99.90;;;;;;5130946;27;20037;-73
2023/04/09 06:10:28;;;;;;;10.95;4.50;;;10.00;99.90;;;;;;5131514;27;20019;-73
2023/04/09 06:12:54;;;;;;;10.65;5.05;;;10.10;99.90;;;;;;5131113;27;20060;-73
2023/04/09 06:15:20;;;;;;;19.88;4.88;;;10.10;99.90;;;;;;5131281;27;20134;-73
2023/04/09 06:17:45;;;;;;;13.50;4.70;;;10.10;99.90;;;;;;5112103;28;20069;-76
2023/04/09 06:20:11;;;;;;;9.73;4.20;;;10.10;99.90;;;;;;5131501;27;20034;-74
2023/04/09 06:22:37;;;;;;;11.57;4.70;;;10.20;99.90;;;;;;5131203;28;20077;-74
2023/04/09 06:25:03;;;;;;;10.18;3.83;;;10.20;99.90;;;;;;5131167;28;20084;-73
2023/04/09 06:27:28;;;;;;;10.88;4.63;;;10.30;99.90;;;;;;5131245;28;20051;-74
2023/04/09 06:29:54;;;;;;;16.48;4.70;;;10.30;99.90;;;;;;5130651;28;20027;-74
2023/04/09 06:32:20;;;;;;;11.93;4.68;;;10.30;99.90;;;;;;5131424;28;20498;-74
2023/04/09 06:34:47;;;;;;;12.65;4.60;;;10.30;99.90;;;;;;5131085;28;20051;-77
2023/04/09 06:37:12;;;;;;;17.45;4.55;;;10.30;99.90;;;;;;5133306;27;20068;-74
2023/04/09 06:39:39;;;;;;;9.52;4.47;;;10.40;99.90;;;;;;5135446;27;20023;-74
2023/04/09 06:42:05;;;;;;;7.85;4.00;;;10.40;99.90;;;;;;5134837;27;20030;-74
2023/04/09 06:44:33;;;;;;;11.10;4.80;;;10.40;99.90;;;;;;5135320;27;20031;-74
2023/04/09 06:46:59;;;;;;;11.48;3.95;;;10.40;99.90;;;;;;5134681;27;20102;-74
2023/04/09 06:49:25;;;;;;;10.48;3.72;;;10.50;99.90;;;;;;5135476;27;20031;-73
2023/04/09 06:51:54;;;;;;;10.15;3.55;;;10.50;99.90;;;;;;5135179;27;20023;-74
2023/04/09 06:54:20;;;;;;;19.52;4.88;;;10.50;99.90;;;;;;5135191;27;20031;-74
2023/04/09 06:56:46;;;;;;;13.57;3.90;;;10.50;99.90;;;;;;5135167;27;20019;-78
2023/04/09 06:59:12;;;;;;;6.97;3.83;;;10.50;99.90;;;;;;5134932;27;20046;-74
2023/04/09 07:01:38;;;;;;;15.93;4.63;;;10.50;99.90;;;;;;5116857;27;20042;-73
2023/04/09 07:04:04;;;;;;;15.45;4.53;;;10.50;99.90;;;;;;5134929;27;20469;-74
2023/04/09 07:06:30;;;;;;;12.75;4.15;;;10.50;99.90;;;;;;5134962;27;20076;-74
2023/04/09 07:08:56;;;;;;;15.27;5.07;;;10.50;99.90;;;;;;5134421;27;20027;-74
2023/04/09 07:11:21;;;;;;;12.02;4.03;;;10.50;99.90;;;;;;5134944;27;20032;-74
2023/04/09 07:13:47;;;;;;;12.77;3.63;;;10.50;99.90;;;;;;5134676;27;20114;-77
2023/04/09 07:16:13;;;;;;;10.30;4.50;;;10.50;99.90;;;;;;5134498;27;20520;-73
2023/04/09 07:18:39;;;;;;;20.85;4.97;;;10.50;99.90;;;;;;5134611;27;20058;-73
2023/04/09 07:21:04;;;;;;;16.27;5.10;;;10.50;99.90;;;;;;5134812;27;20079;-73
2023/04/09 07:23:35;;;;;;;11.57;4.10;;;10.60;99.90;;;;;;5135002;27;20051;-73
2023/04/09 07:26:04;;;;;;;14.90;4.95;;;10.60;99.90;;;;;;5133936;27;20119;-73
2023/04/09 07:28:31;;;;;;;11.73;4.38;;;10.60;99.90;;;;;;5134552;27;20069;-73
2023/04/09 07:30:57;;;;;;;14.30;4.47;;;10.60;99.90;;;;;;5115510;27;20020;-74
2023/04/09 07:33:22;;;;;;;8.48;4.00;;;10.70;99.90;;;;;;5134458;27;20110;-73
2023/04/09 07:35:48;;;;;;;12.88;4.32;;;10.80;99.90;;;;;;5134111;27;20042;-77
2023/04/09 07:38:15;;;;;;;9.88;4.72;;;10.80;99.90;;;;;;5133859;27;20459;-73
2023/04/09 07:40:40;;;;;;;15.23;4.72;;;10.80;99.90;;;;;;5134714;27;20035;-74
2023/04/09 07:43:06;;;;;;;16.67;5.22;;;10.90;99.90;;;;;;5115225;27;20380;-73
2023/04/09 07:45:32;;;;;;;14.77;5.10;;;10.90;99.90;;;;;;5133890;27;20039;-73
2023/04/09 07:47:58;;;;;;;15.82;4.80;;;11.00;99.90;;;;;;5132972;27;20027;-74
2023/04/09 07:50:23;;;;;;;12.15;4.57;;;11.10;99.90;;;;;;5115301;27;20494;-74
2023/04/09 07:52:49;;;;;;;10.05;3.85;;;11.10;99.90;;;;;;5133853;27;20068;-77
2023/04/09 07:55:15;;;;;;;8.98;3.83;;;11.20;99.90;;;;;;5133597;27;20023;-73
2023/04/09 07:57:41;;;;;;;12.50;4.57;;;11.30;99.90;;;;;;5133533;27;20083;-74
2023/04/09 08:00:08;;;;;;;12.85;4.53;;;11.40;99.90;;;;;;5133427;27;20030;-73
2023/04/09 08:02:34;;;;;;;11.55;4.80;;;11.40;99.90;;;;;;5133816;27;20031;-75
2023/04/09 08:04:59;;;;;;;12.50;4.10;;;11.60;99.90;;;;;;5133032;27;20460;-75
2023/04/09 08:07:25;;;;;;;14.18;4.43;;;11.70;99.90;;;;;;5133682;27;20042;-74
2023/04/09 08:09:51;;;;;;;15.10;4.20;;;11.70;99.90;;;;;;5133554;27;20045;-77
2023/04/09 08:12:17;;;;;;;9.07;3.92;;;11.80;99.90;;;;;;5133412;27;20032;-74
2023/04/09 08:14:42;;;;;;;10.55;4.10;;;11.80;99.90;;;;;;5133443;27;20027;-74
2023/04/09 08:17:08;;;;;;;9.32;3.72;;;11.90;99.90;;;;;;5132824;27;20051;-74
2023/04/09 08:19:34;;;;;;;9.95;3.85;;;11.90;99.90;;;;;;5133403;27;20019;-74
2023/04/09 08:22:00;;;;;;;12.20;3.83;;;12.00;99.90;;;;;;5132795;27;20051;-75
2023/04/09 08:24:27;;;;;;;10.68;3.90;;;12.10;99.90;;;;;;5133733;27;20107;-75
2023/04/09 08:26:53;;;;;;;9.57;4.25;;;12.10;99.90;;;;;;5133248;27;20483;-78
2023/04/09 08:29:19;;;;;;;9.63;4.05;;;12.10;99.90;;;;;;5133361;27;20058;-74
2023/04/09 08:31:44;;;;;;;10.30;4.13;;;12.10;99.90;;;;;;5133498;27;20070;-74
2023/04/09 08:34:11;;;;;;;12.10;4.15;;;12.10;99.90;;;;;;5133077;27;20114;-74
2023/04/09 08:36:37;;;;;;;11.07;4.32;;;12.10;99.90;;;;;;5133646;27;20035;-72
2023/04/09 08:39:03;;;;;;;10.05;4.50;;;12.10;99.90;;;;;;5132838;27;20161;-73
2023/04/09 08:41:29;;;;;;;12.90;4.18;;;12.20;99.90;;;;;;5133280;27;20029;-73
2023/04/09 08:43:56;;;;;;;11.60;4.40;;;12.20;99.90;;;;;;5114300;27;20468;-77
2023/04/09 08:46:22;;;;;;;12.95;4.45;;;12.30;99.90;;;;;;5132626;27;20428;-72
2023/04/09 08:48:52;;;;;;;11.18;4.55;;;12.30;99.90;;;;;;5132958;27;20031;-74
2023/04/09 08:51:23;;;;;;;12.00;4.53;;;12.40;99.90;;;;;;5132148;27;20110;-72
2023/04/09 08:54:00;;;;;;;10.00;4.15;;;12.40;99.90;;;;;;5132360;27;20487;-73
2023/04/09 08:56:26;;;;;;;18.60;4.97;;;12.40;99.90;;;;;;5132684;27;20062;-73
2023/04/09 08:58:52;;;;;;;14.73;4.65;;;12.50;99.90;;;;;;5132136;27;20070;-73
2023/04/09 09:01:26;;;;;;;11.45;5.07;;;12.60;99.90;;;;;;5130952;27;20023;-73
2023/04/09 09:03:57;;;;;;;9.68;4.63;;;12.60;99.90;;;;;;5132575;27;20032;-73
2023/04/09 09:06:26;;;;;;;13.93;4.88;;;12.60;99.90;;;;;;5132280;27;20319;-73
2023/04/09 09:09:06;;;;;;;10.30;4.55;;;12.60;99.90;;;;;;5132217;27;20027;-74
2023/04/09 09:11:34;;;;;;;15.38;4.35;;;12.60;99.90;;;;;;5132023;27;20023;-73
2023/04/09 09:14:11;;;;;;;9.73;4.45;;;12.70;99.90;;;;;;5131494;27;20409;-73
2023/04/09 09:16:41;;;;;;;11.07;4.65;;;12.80;99.90;;;;;;5132095;27;20494;-73
2023/04/09 09:19:08;;;;;;;12.55;4.25;;;12.80;99.90;;;;;;5131710;27;20028;-73
2023/04/09 09:21:35;;;;;;;11.43;4.78;;;12.80;99.90;;;;;;5131804;27;20015;-73
2023/04/09 09:24:01;;;;;;;7.95;3.83;;;12.90;99.90;;;;;;5112523;27;20047;-74
2023/04/09 09:26:28;;;;;;;15.90;4.65;;;12.90;99.90;;;;;;5131911;27;20030;-74
2023/04/09 09:28:57;;;;;;;13.70;4.78;;;12.90;99.90;;;;;;5132042;27;20023;-73
2023/04/09 09:31:24;;;;;;;10.60;4.57;;;12.80;99.90;;;;;;5131904;27;20073;-73
2023/04/09 09:33:50;;;;;;;13.93;4.88;;;12.80;99.90;;;;;;5131315;27;20114;-73
2023/04/09 09:36:30;;;;;;;12.00;4.60;;;12.80;99.90;;;;;;5131126;27;20196;-73
2023/04/09 09:38:57;;;;;;;12.07;5.57;;;12.80;99.90;;;;;;5131451;27;20498;-78
2023/04/09 09:41:24;;;;;;;12.10;4.90;;;12.80;99.90;;;;;;5113062;27;20025;-73
2023/04/09 09:43:50;;;;;;;12.82;5.00;;;12.80;99.90;;;;;;5131783;27;20133;-74
2023/04/09 09:46:16;;;;;;;17.67;5.20;;;12.80;99.90;;;;;;5130712;27;20239;-74
2023/04/09 09:48:45;;;;;;;10.40;5.57;;;12.80;99.90;;;;;;5131681;27;20106;-73
2023/04/09 09:51:12;;;;;;;13.20;5.50;;;12.70;99.90;;;;;;5130875;27;20027;-74
2023/04/09 09:53:41;;;;;;;11.93;5.60;;;12.70;99.90;;;;;;5131437;27;20019;-74
2023/04/09 09:56:15;;;;;;;11.27;5.28;;;12.70;99.90;;;;;;5131054;27;20490;-74
2023/04/09 09:59:00;;;;;;;9.90;5.25;;;12.70;99.90;;;;;;5131535;27;20032;-74
2023/04/09 10:01:27;;;;;;;13.75;5.80;;;12.60;99.90;;;;;;5131551;27;20046;-73
2023/04/09 10:03:55;;;;;;;11.70;5.78;;;12.60;99.90;;;;;;5131809;27;20023;-73
2023/04/09 10:06:22;;;;;;;10.27;5.30;;;12.60;99.90;;;;;;5130839;27;20035;-72
2023/04/09 10:08:51;;;;;;;15.75;5.88;;;12.50;99.90;;;;;;5131482;27;20150;-73
2023/04/09 10:11:19;;;;;;;13.90;5.70;;;12.50;99.90;;;;;;5130835;27;20027;-73
2023/04/09 10:13:55;;;;;;;15.90;5.57;;;12.50;99.90;;;;;;5131640;27;20031;-73
2023/04/09 10:16:22;;;;;;;13.77;6.38;;;12.50;99.90;;;;;;5131306;27;20130;-73
2023/04/09 10:18:47;;;;;;;14.93;5.85;;;12.50;99.90;;;;;;5131055;27;20027;-73
2023/04/09 10:21:32;;;;;;;15.70;6.70;;;12.50;99.90;;;;;;5130957;27;20071;-73
2023/04/09 10:23:59;;;;;;;14.02;6.03;;;12.50;99.90;;;;;;5131554;28;20047;-73
2023/04/09 10:26:29;;;;;;;17.88;5.85;;;12.50;99.90;;;;;;5130936;28;20027;-74
2023/04/09 10:29:14;;;;;;;15.93;6.00;;;12.50;99.90;;;;;;5130912;28;20031;-74
2023/04/09 10:32:01;;;;;;;15.45;5.88;;;12.50;99.90;;;;;;5131191;28;20031;-73
2023/04/09 10:34:27;;;;;;;13.90;5.85;;;12.50;99.90;;;;;;5131750;28;20102;-74
2023/04/09 10:36:58;;;;;;;12.00;5.68;;;12.50;99.90;;;;;;5131541;28;20070;-73
2023/04/09 10:39:29;;;;;;;13.00;6.10;;;12.50;99.90;;;;;;5131004;28;20027;-74
2023/04/09 10:41:56;;;;;;;15.95;5.82;;;12.50;99.90;;;;;;5131047;28;20031;-74
2023/04/09 10:44:25;;;;;;;11.95;5.88;;;12.60;99.90;;;;;;5130596;28;20019;-74
2023/04/09 10:46:55;;;;;;;17.88;5.82;;;12.60;99.90;;;;;;5131459;28;20032;-74
2023/04/09 10:49:21;;;;;;;11.38;5.28;;;12.70;99.90;;;;;;5130373;28;20856;-73
2023/04/09 10:52:10;;;;;;;11.40;5.30;;;12.70;99.90;;;;;;5131337;28;20126;-73
2023/04/09 10:54:44;;;;;;;18.48;5.18;;;12.70;99.90;;;;;;5131216;28;20042;-73
2023/04/09 10:57:12;;;;;;;15.45;5.30;;;12.70;99.90;;;;;;5130366;28;20034;-74
2023/04/09 10:59:54;;;;;;;13.57;5.75;;;12.70;99.90;;;;;;5112624;28;20027;-73
2023/04/09 11:02:38;;;;;;;10.73;5.38;;;12.70;99.90;;;;;;5130061;28;20078;-73
2023/04/09 11:05:31;;;;;;;17.70;5.82;;;12.70;99.90;;;;;;5130477;28;20046;-78
2023/04/09 11:08:08;;;;;;;16.05;5.60;;;12.70;99.90;;;;;;5130849;28;20377;-74
2023/04/09 11:10:34;;;;;;;17.77;6.30;;;12.70;99.90;;;;;;5131001;28;20031;-74
2023/04/09 11:13:01;;;;;;;14.82;5.28;;;12.70;99.90;;;;;;5130386;28;20023;-74
2023/04/09 11:15:27;;;;;;;13.98;5.55;;;12.80;99.90;;;;;;5130362;28;20027;-74
2023/04/09 11:17:53;;;;;;;12.75;5.00;;;12.80;99.90;;;;;;5130214;28;20031;-74
2023/04/09 11:20:21;;;;;;;12.10;4.68;;;12.90;99.90;;;;;;5130458;28;20109;-74
2023/04/09 11:22:50;;;;;;;17.63;5.80;;;12.90;99.90;;;;;;5129798;27;20487;-74
2023/04/09 11:25:26;;;;;;;15.10;5.10;;;13.00;99.90;;;;;;5133594;27;20482;-74
2023/04/09 11:27:52;;;;;;;13.70;5.25;;;13.10;99.90;;;;;;5134681;27;20034;-75
2023/04/09 11:30:18;;;;;;;14.27;4.60;;;13.20;99.90;;;;;;5133266;27;20448;-74
2023/04/09 11:32:44;;;;;;;18.10;5.07;;;13.20;99.90;;;;;;5134314;27;20023;-73
2023/04/09 11:35:18;;;;;;;12.68;4.97;;;13.10;99.90;;;;;;5133877;27;20027;-74
2023/04/09 11:37:45;;;;;;;14.27;5.00;;;13.10;99.90;;;;;;5134272;27;20332;-73
2023/04/09 11:40:15;;;;;;;17.83;5.30;;;13.10;99.90;;;;;;5133791;27;20027;-74
2023/04/09 11:42:41;;;;;;;17.42;5.03;;;13.10;99.90;;;;;;5134285;27;20094;-73
2023/04/09 11:45:09;;;;;;;15.70;5.18;;;13.10;99.90;;;;;;5133368;27;20019;-77
2023/04/09 11:47:36;;;;;;;13.55;5.10;;;13.10;99.90;;;;;;5133711;27;20060;-73
2023/04/09 11:50:02;;;;;;;18.65;5.25;;;13.10;99.90;;;;;;5134220;27;20397;-73
2023/04/09 11:52:29;;;;;;;13.23;4.82;;;13.00;99.90;;;;;;5134225;27;20080;-73
2023/04/09 11:55:00;;;;;;;14.73;5.00;;;13.00;99.90;;;;;;5133485;27;20461;-73
2023/04/09 11:57:42;;;;;;;14.65;4.70;;;12.90;99.90;;;;;;5133312;27;20111;-73
2023/04/09 12:00:11;;;;;;;15.73;5.80;;;12.80;99.90;;;;;;5133451;27;20023;-77
2023/04/09 12:02:41;;;;;;;18.77;5.57;;;12.80;99.90;;;;;;5133862;27;20042;-72
2023/04/09 12:05:09;;;;;;;22.02;6.32;;;12.90;99.90;;;;;;5133308;27;20027;-77
2023/04/09 12:07:36;;;;;;;18.17;5.47;;;12.80;99.90;;;;;;5133390;27;20062;-73
2023/04/09 12:10:09;;;;;;;13.23;5.80;;;12.80;99.90;;;;;;5133266;27;20137;-72
2023/04/09 12:12:47;;;;;;;11.98;4.82;;;12.80;99.90;;;;;;5133208;27;20023;-73
2023/04/09 12:15:21;;;;;;;15.27;5.32;;;12.90;99.90;;;;;;5132263;27;20039;-73
2023/04/09 12:17:54;;;;;;;16.30;4.63;;;12.80;99.90;;;;;;5132409;27;20038;-73
2023/04/09 12:20:34;;;;;;;13.68;5.10;;;12.80;99.90;;;;;;5113494;27;20490;-72
2023/04/09 12:23:02;;;;;;;23.05;5.57;;;12.80;99.90;;;;;;5132597;27;20061;-73
2023/04/09 12:25:29;;;;;;;15.32;5.13;;;12.90;99.90;;;;;;5132161;27;20047;-73
2023/04/09 12:27:56;;;;;;;11.15;4.47;;;12.90;99.90;;;;;;5132808;27;20023;-73
2023/04/09 12:30:22;;;;;;;13.30;4.60;;;12.90;99.90;;;;;;5131851;27;20027;-73
2023/04/09 12:32:48;;;;;;;12.73;5.05;;;12.90;99.90;;;;;;5132400;27;20476;-73
2023/04/09 12:35:14;;;;;;;13.93;4.63;;;12.90;99.90;;;;;;5132008;27;20055;-73
2023/04/09 12:37:41;;;;;;;16.95;5.15;;;13.00;99.90;;;;;;5132837;27;20043;-73
2023/04/09 12:40:07;;;;;;;17.77;5.10;;;12.90;99.90;;;;;;5132355;27;20027;-78
2023/04/09 12:42:33;;;;;;;14.68;4.75;;;12.90;99.90;;;;;;5113480;27;20027;-73
2023/04/09 12:44:59;;;;;;;14.95;4.90;;;12.90;99.90;;;;;;5113960;27;20383;-73